This is the latest recevied weather packets stored in our database for station/object WB3IGR. If no packets are shown the sender has not sent any weather packets the latest 1 day(s).
| Time | Temp. | Humidity | Pressure | Rain* | Wind** | Luminosity | Snow |
|---|---|---|---|---|---|---|---|
| 1778104262 | 18.89° C | 89% | 1008.9 hPa | 0 mm | - | 94 W/m² | - |
| 1778101533 | 19.44° C | 89% | 1008.8 hPa | 0 mm | - | 90 W/m² | - |
| 1778099411 | 18.33° C | 90% | 1008.7 hPa | 0 mm | - | 210 W/m² | - |
| 1778098503 | 18.33° C | 90% | 1008.7 hPa | 0 mm | - | 47 W/m² | - |
| 1778095773 | 18.33° C | 90% | 1008.7 hPa | 0 mm | - | 230 W/m² | - |
| 1778095470 | 18.89° C | 90% | 1008.7 hPa | 0 mm | - | 209 W/m² | - |
| 1778094863 | 18.33° C | 91% | 1008.7 hPa | 0 mm | - | 441 W/m² | - |
| 1778094560 | 18.89° C | 90% | 1009 hPa | 0 mm | - | 315 W/m² | - |
| 1778093348 | 18.33° C | 91% | 1009 hPa | 0 mm | - | 439 W/m² | - |
| 1778092742 | 17.78° C | 94% | 1009.1 hPa | 0 mm | - | 462 W/m² | - |
| 1778090316 | 16.67° C | 97% | 1009.4 hPa | 0 mm | - | 122 W/m² | - |
| 1778090013 | 16.11° C | 97% | 1009.5 hPa | 0 mm | - | 98 W/m² | - |
| 1778089710 | 16.11° C | 97% | 1009.4 hPa | 0 mm | - | 69 W/m² | - |
| 1778089105 | 16.11° C | 98% | 1009.3 hPa | 0 mm | - | 81 W/m² | - |
| 1778088195 | 16.11° C | 98% | 1009.4 hPa | 0 mm | - | 70 W/m² | - |
| 1778086076 | 15.56° C | 99% | 1009.5 hPa | 0 mm | - | 83 W/m² | - |
| 1778083953 | 15.56° C | 99% | 1009.7 hPa | 0 mm | - | 82 W/m² | - |
| 1778082742 | 15.56° C | 99% | 1009.2 hPa | 0 mm | - | 238 W/m² | - |
| 1778081004 | 15.56° C | 99% | 1009.8 hPa | 4.83 mm | - | 157 W/m² | - |
| 1778078580 | 15.56° C | 99% | 1010.5 hPa | 1.27 mm | - | 59 W/m² | - |
| 1778074341 | 15.56° C | 98% | 1010.3 hPa | 0 mm | - | 64 W/m² | - |
| 1778074038 | 15.56° C | 98% | 1010.3 hPa | 1.78 mm | - | 60 W/m² | - |
| 1778073735 | 15.56° C | 98% | 1010.2 hPa | 1.78 mm | - | 88 W/m² | - |
| 1778072826 | 15.56° C | 97% | 1010.4 hPa | 1.78 mm | - | 121 W/m² | - |
| 1778071616 | 16.11° C | 96% | 1010.7 hPa | 0 mm | - | 35 W/m² | - |
* Rain latest hour (hover to see other rain measurements)
** Current wind speed in m/s (hover to see current wind gust speed)